createdAt,value
2017-12-09T00:01:06.887Z,1.12
2017-12-09T00:02:16.062Z,1.09
2017-12-09T00:03:24.882Z,1.15
2017-12-09T00:04:33.707Z,1.2
2017-12-09T00:05:42.528Z,1.15
2017-12-09T00:06:51.500Z,1.42
2017-12-09T00:08:00.605Z,1.26
2017-12-09T00:09:09.420Z,1.18
2017-12-09T00:10:18.245Z,1.15
2017-12-09T00:11:27.067Z,1.06
2017-12-09T00:12:36.089Z,1.12
2017-12-09T00:13:44.914Z,1.06
2017-12-09T00:14:53.736Z,1.14
2017-12-09T00:16:02.558Z,1.24
2017-12-09T00:17:11.378Z,1.27
2017-12-09T00:18:20.400Z,1.16
2017-12-09T00:19:29.224Z,1.08
2017-12-09T00:20:38.045Z,1.12
2017-12-09T00:21:46.868Z,1.08
2017-12-09T00:22:55.687Z,1.2
2017-12-09T00:24:04.559Z,1.22
2017-12-09T00:25:13.382Z,1.11
2017-12-09T00:26:22.205Z,1.05
2017-12-09T00:27:31.298Z,1.27
2017-12-09T00:28:40.117Z,1.18
2017-12-09T00:29:49.090Z,1.15
2017-12-09T00:30:57.913Z,1.11
2017-12-09T00:32:07.010Z,1.14
2017-12-09T00:33:16.108Z,1.09
2017-12-09T00:34:24.932Z,1.3
2017-12-09T00:35:34.053Z,1.16
2017-12-09T00:36:42.875Z,1.08
2017-12-09T00:37:51.697Z,1.08
2017-12-09T00:39:00.519Z,1.08
2017-12-09T00:40:09.341Z,1.02
2017-12-09T00:41:18.163Z,1.02
2017-12-09T00:42:26.990Z,1.08
2017-12-09T00:43:35.810Z,1.09
2017-12-09T00:44:44.631Z,1.05
2017-12-09T00:45:53.455Z,0.98
2017-12-09T00:47:02.602Z,1.16
2017-12-09T00:48:11.428Z,1.11
2017-12-09T00:49:20.251Z,1.05
2017-12-09T00:50:29.075Z,1.05
2017-12-09T00:51:37.898Z,1.12
2017-12-09T00:52:46.872Z,1.09
2017-12-09T00:53:55.692Z,1.05
2017-12-09T00:55:04.517Z,1.2
2017-12-09T00:56:13.614Z,1.06
2017-12-09T00:57:22.440Z,1.14
2017-12-09T00:58:31.413Z,1.09
2017-12-09T00:59:40.235Z,1.2
2017-12-09T01:00:49.058Z,1.06
2017-12-09T01:01:57.880Z,1.15
2017-12-09T01:03:06.703Z,1.08
2017-12-09T01:04:15.823Z,1.15
2017-12-09T01:05:24.646Z,1.42
2017-12-09T01:06:33.468Z,1.3
2017-12-09T01:07:42.564Z,1.18
2017-12-09T01:08:51.388Z,1.15
2017-12-09T01:10:00.362Z,1.16
2017-12-09T01:11:09.183Z,1.22
2017-12-09T01:12:18.005Z,1.16
2017-12-09T01:13:26.827Z,1.62
2017-12-09T01:14:35.649Z,1.41
2017-12-09T01:15:44.677Z,1.33
2017-12-09T01:16:53.776Z,1.41
2017-12-09T01:18:02.599Z,1.16
2017-12-09T01:19:11.700Z,1.15
2017-12-09T01:20:20.529Z,1.18
2017-12-09T01:21:29.828Z,1.2
2017-12-09T01:22:38.650Z,1.33
2017-12-09T01:23:47.472Z,1.12
2017-12-09T01:24:56.294Z,1.14
2017-12-09T01:26:05.115Z,1.14
2017-12-09T01:27:14.038Z,1.16
2017-12-09T01:28:22.960Z,1.12
2017-12-09T01:29:31.783Z,1.11
2017-12-09T01:30:40.610Z,1.11
2017-12-09T01:31:49.433Z,1.11
2017-12-09T01:32:58.457Z,1.05
2017-12-09T01:34:07.283Z,1.05
2017-12-09T01:35:16.107Z,1.06
2017-12-09T01:36:24.930Z,1.09
2017-12-09T01:37:33.754Z,1.09
2017-12-09T01:38:42.677Z,1.16
2017-12-09T01:39:51.496Z,1.06
2017-12-09T01:41:00.321Z,1.14
2017-12-09T01:42:09.145Z,1.08
2017-12-09T01:43:18.244Z,1.18
2017-12-09T01:44:27.495Z,1.14
2017-12-09T01:45:36.320Z,1.15
2017-12-09T01:46:45.142Z,1.02
2017-12-09T01:47:53.971Z,1.11
2017-12-09T01:49:02.789Z,1.09
2017-12-09T01:50:11.758Z,1.04
2017-12-09T01:51:20.584Z,1.11
2017-12-09T01:52:29.406Z,1.11
2017-12-09T01:53:38.511Z,1.12
2017-12-09T01:54:47.329Z,1.14
2017-12-09T01:55:56.727Z,1.08
2017-12-09T01:57:05.549Z,1.68
2017-12-09T01:58:14.375Z,1.32
2017-12-09T01:59:23.474Z,1.16
2017-12-09T02:00:32.294Z,1.16
2017-12-09T02:01:41.216Z,1.15
2017-12-09T02:02:50.043Z,1.3
2017-12-09T02:03:58.859Z,1.47
2017-12-09T02:05:07.677Z,1.5
2017-12-09T02:06:16.779Z,1.47
2017-12-09T02:07:25.752Z,1.54
2017-12-09T02:08:34.574Z,1.65
2017-12-09T02:09:43.405Z,1.48
2017-12-09T02:10:52.219Z,1.52
2017-12-09T02:12:01.048Z,1.37
2017-12-09T02:13:10.175Z,1.76
2017-12-09T02:14:19.269Z,1.45
2017-12-09T02:15:28.092Z,1.42
2017-12-09T02:16:36.916Z,1.37
2017-12-09T02:17:45.738Z,1.42
2017-12-09T02:18:55.193Z,1.36
2017-12-09T02:20:03.957Z,1.37
2017-12-09T02:21:12.779Z,1.29
2017-12-09T02:22:21.603Z,1.37
2017-12-09T02:23:30.425Z,1.37
2017-12-09T02:24:39.399Z,1.51
2017-12-09T02:25:48.223Z,1.44
2017-12-09T02:26:57.046Z,1.41
2017-12-09T02:28:05.866Z,1.44
2017-12-09T02:29:14.688Z,1.41
2017-12-09T02:30:23.611Z,1.4
2017-12-09T02:31:32.436Z,1.34
2017-12-09T02:32:41.308Z,1.42
2017-12-09T02:33:50.128Z,1.4
2017-12-09T02:34:58.950Z,1.59
2017-12-09T02:36:08.073Z,1.68
2017-12-09T02:37:16.897Z,1.52
2017-12-09T02:38:25.720Z,1.41
2017-12-09T02:39:34.543Z,1.45
2017-12-09T02:40:43.367Z,1.5
2017-12-09T02:41:52.491Z,1.47
2017-12-09T02:43:01.312Z,1.42
2017-12-09T02:44:10.134Z,1.47
2017-12-09T02:45:18.956Z,1.5
2017-12-09T02:46:27.782Z,1.66
2017-12-09T02:47:36.603Z,1.58
2017-12-09T02:48:45.425Z,1.8
2017-12-09T02:49:54.249Z,1.6
2017-12-09T02:51:03.072Z,1.47
2017-12-09T02:52:11.896Z,1.62
2017-12-09T02:53:21.066Z,1.58
2017-12-09T02:54:29.888Z,1.55
2017-12-09T02:55:38.712Z,1.6
2017-12-09T02:56:47.534Z,1.58
2017-12-09T02:57:56.358Z,1.8
2017-12-09T02:59:05.328Z,1.65
2017-12-09T03:00:14.150Z,1.76
2017-12-09T03:01:22.973Z,1.7
2017-12-09T03:02:31.796Z,1.73
2017-12-09T03:03:40.615Z,1.73
2017-12-09T03:04:49.487Z,1.73
2017-12-09T03:05:58.311Z,1.73
2017-12-09T03:07:07.133Z,1.63
2017-12-09T03:08:15.953Z,1.69
2017-12-09T03:09:24.777Z,1.68
2017-12-09T03:10:33.849Z,1.63
2017-12-09T03:11:42.672Z,1.68
2017-12-09T03:12:51.493Z,1.81
2017-12-09T03:14:00.316Z,1.7
2017-12-09T03:15:09.137Z,1.79
2017-12-09T03:16:18.009Z,1.66
2017-12-09T03:17:26.832Z,1.73
2017-12-09T03:18:35.925Z,1.62
2017-12-09T03:19:44.751Z,1.65
2017-12-09T03:20:53.575Z,1.54
2017-12-09T03:22:02.720Z,1.47
2017-12-09T03:23:11.544Z,1.41
2017-12-09T03:24:20.368Z,1.42
2017-12-09T03:25:29.190Z,1.54
2017-12-09T03:26:38.013Z,1.41
2017-12-09T03:27:46.937Z,1.44
2017-12-09T03:28:56.036Z,1.44
2017-12-09T03:30:04.863Z,1.47
2017-12-09T03:31:13.685Z,1.51
2017-12-09T03:32:22.504Z,1.44
2017-12-09T03:33:31.426Z,1.7
2017-12-09T03:34:40.247Z,1.54
2017-12-09T03:35:49.342Z,1.66
2017-12-09T03:36:58.163Z,1.6
2017-12-09T03:38:06.986Z,1.6
2017-12-09T03:39:15.857Z,1.52
2017-12-09T03:40:24.677Z,1.55
2017-12-09T03:41:33.500Z,1.5
2017-12-09T03:42:42.322Z,1.48
2017-12-09T03:43:51.147Z,1.58
2017-12-09T03:44:59.968Z,1.51
2017-12-09T03:46:08.792Z,1.62
2017-12-09T03:47:17.614Z,1.62
2017-12-09T03:48:26.438Z,1.69
2017-12-09T03:49:35.259Z,1.72
2017-12-09T03:50:44.084Z,1.65
2017-12-09T03:51:53.177Z,1.72
2017-12-09T03:53:01.999Z,1.77
2017-12-09T03:54:10.825Z,1.7
2017-12-09T03:55:19.648Z,1.68
2017-12-09T03:56:28.519Z,1.73
2017-12-09T03:57:37.349Z,1.65
2017-12-09T03:58:46.163Z,1.68
2017-12-09T03:59:54.987Z,1.79
2017-12-09T04:01:03.810Z,1.76
2017-12-09T04:02:12.632Z,1.76
2017-12-09T04:03:21.458Z,1.87
2017-12-09T04:04:30.280Z,1.7
2017-12-09T04:05:39.105Z,1.79
2017-12-09T04:06:47.928Z,1.76
2017-12-09T04:07:56.849Z,1.77
2017-12-09T04:09:05.946Z,1.73
2017-12-09T04:10:15.043Z,1.79
2017-12-09T04:11:23.864Z,1.77
2017-12-09T04:12:32.964Z,1.77
2017-12-09T04:13:41.785Z,2.03
2017-12-09T04:14:50.608Z,1.93
2017-12-09T04:15:59.431Z,1.81
2017-12-09T04:17:08.258Z,1.83
2017-12-09T04:18:17.356Z,1.73
2017-12-09T04:19:26.328Z,1.86
2017-12-09T04:20:35.153Z,1.81
2017-12-09T04:21:43.972Z,1.8
2017-12-09T04:22:52.798Z,1.73
2017-12-09T04:24:01.621Z,1.77
2017-12-09T04:25:10.637Z,1.76
2017-12-09T04:26:19.417Z,1.81
2017-12-09T04:27:28.239Z,1.87
2017-12-09T04:28:37.060Z,1.81
2017-12-09T04:29:45.883Z,1.76
2017-12-09T04:30:54.702Z,2.1
2017-12-09T04:32:03.529Z,1.8
2017-12-09T04:33:12.352Z,1.79
2017-12-09T04:34:21.173Z,1.73
2017-12-09T04:35:29.995Z,1.68
2017-12-09T04:36:38.869Z,1.77
2017-12-09T04:37:47.689Z,1.69
2017-12-09T04:38:56.512Z,2.02
2017-12-09T04:40:05.333Z,1.6
2017-12-09T04:41:14.155Z,1.47
2017-12-09T04:42:23.077Z,1.27
2017-12-09T04:43:32.452Z,1.32
2017-12-09T04:44:41.275Z,1.42
2017-12-09T04:45:50.099Z,1.27
2017-12-09T04:46:58.920Z,1.41
2017-12-09T04:48:07.791Z,1.36
2017-12-09T04:49:16.892Z,1.3
2017-12-09T04:50:25.716Z,1.41
2017-12-09T04:51:34.538Z,1.27
2017-12-09T04:52:43.358Z,1.3
2017-12-09T04:53:52.279Z,1.36
2017-12-09T04:55:01.102Z,1.3
2017-12-09T04:56:09.925Z,1.16
2017-12-09T04:57:18.748Z,1.2
2017-12-09T04:58:27.571Z,1.16
2017-12-09T04:59:36.702Z,1.22
2017-12-09T05:00:45.525Z,1.11
2017-12-09T05:01:54.347Z,1.15
2017-12-09T05:03:03.169Z,1.08
2017-12-09T05:04:11.990Z,1.37
2017-12-09T05:05:20.964Z,1.4
2017-12-09T05:06:29.784Z,1.41
2017-12-09T05:07:38.882Z,1.27
2017-12-09T05:08:47.705Z,1.22
2017-12-09T05:09:56.526Z,1.14
2017-12-09T05:11:05.778Z,1.15
2017-12-09T05:12:14.601Z,1.15
2017-12-09T05:13:23.421Z,1.18
2017-12-09T05:14:32.242Z,1.41
2017-12-09T05:15:41.062Z,1.27
2017-12-09T05:16:49.934Z,1.26
2017-12-09T05:17:58.759Z,1.72
2017-12-09T05:19:07.579Z,1.47
2017-12-09T05:20:16.399Z,1.27
2017-12-09T05:21:25.219Z,1.36
2017-12-09T05:22:34.193Z,1.22
2017-12-09T05:23:43.016Z,1.18
2017-12-09T05:24:52.117Z,1.18
2017-12-09T05:26:00.936Z,1.14
2017-12-09T05:27:09.758Z,1.12
2017-12-09T05:28:18.577Z,1.15
2017-12-09T05:29:27.400Z,1.12
2017-12-09T05:30:36.221Z,1.26
2017-12-09T05:31:45.322Z,1.27
2017-12-09T05:32:54.140Z,1.18
2017-12-09T05:34:03.015Z,1.16
2017-12-09T05:35:11.837Z,1.15
2017-12-09T05:36:20.658Z,1.3
2017-12-09T05:37:29.481Z,1.24
2017-12-09T05:38:38.315Z,1.42
2017-12-09T05:39:47.182Z,1.47
2017-12-09T05:40:56.277Z,1.41
2017-12-09T05:42:05.097Z,1.6
2017-12-09T05:43:14.196Z,1.5
2017-12-09T05:44:23.294Z,1.54
2017-12-09T05:45:32.365Z,1.4
2017-12-09T05:46:41.189Z,1.4
2017-12-09T05:47:50.016Z,1.34
2017-12-09T05:48:58.832Z,1.66
2017-12-09T05:50:07.657Z,1.47
2017-12-09T05:51:16.782Z,1.54
2017-12-09T05:52:25.602Z,1.66
2017-12-09T05:53:34.422Z,1.73
2017-12-09T05:54:43.244Z,1.62
2017-12-09T05:55:52.067Z,1.62
2017-12-09T05:57:01.516Z,1.63
2017-12-09T05:58:10.338Z,2.09
2017-12-09T05:59:19.160Z,1.83
2017-12-09T06:00:27.983Z,1.8
2017-12-09T06:01:36.813Z,1.76
2017-12-09T06:02:45.785Z,1.69
2017-12-09T06:03:54.605Z,1.79
2017-12-09T06:05:03.428Z,1.79
2017-12-09T06:06:12.248Z,1.86
2017-12-09T06:07:21.069Z,1.79
2017-12-09T06:08:30.487Z,1.81
2017-12-09T06:09:39.309Z,1.79
2017-12-09T06:10:48.133Z,1.59
2017-12-09T06:11:56.955Z,1.72
2017-12-09T06:13:05.780Z,1.81
2017-12-09T06:14:14.901Z,1.58
2017-12-09T06:15:23.722Z,1.47
2017-12-09T06:16:32.546Z,1.4
2017-12-09T06:17:41.374Z,1.29
2017-12-09T06:18:50.195Z,1.41
2017-12-09T06:19:59.068Z,1.34
2017-12-09T06:21:07.893Z,1.37
2017-12-09T06:22:16.715Z,1.47
2017-12-09T06:23:25.541Z,1.44
2017-12-09T06:24:34.365Z,1.47
2017-12-09T06:25:43.185Z,1.63
2017-12-09T06:26:52.284Z,1.65
2017-12-09T06:28:01.103Z,1.51
2017-12-09T06:29:09.925Z,1.58
2017-12-09T06:30:18.748Z,1.47
2017-12-09T06:31:27.996Z,1.55
2017-12-09T06:32:37.099Z,1.47
2017-12-09T06:33:45.920Z,1.45
2017-12-09T06:34:54.743Z,1.45
2017-12-09T06:36:03.567Z,1.41
2017-12-09T06:37:12.447Z,1.41
2017-12-09T06:38:21.265Z,1.34
2017-12-09T06:39:30.089Z,1.41
2017-12-09T06:40:38.908Z,1.42
2017-12-09T06:41:47.731Z,1.42
2017-12-09T06:42:56.602Z,1.48
2017-12-09T06:44:05.428Z,1.5
2017-12-09T06:45:14.250Z,1.48
2017-12-09T06:46:23.354Z,1.47
2017-12-09T06:47:32.178Z,1.5
2017-12-09T06:48:41.153Z,1.52
2017-12-09T06:49:49.976Z,1.47
2017-12-09T06:50:58.800Z,1.4
2017-12-09T06:52:07.623Z,1.5
2017-12-09T06:53:16.449Z,1.45
2017-12-09T06:54:25.324Z,1.72
2017-12-09T06:55:34.148Z,1.47
2017-12-09T06:56:42.971Z,1.45
2017-12-09T06:57:51.797Z,1.48
2017-12-09T06:59:00.622Z,1.58
2017-12-09T07:00:09.443Z,1.48
2017-12-09T07:01:18.269Z,1.52
2017-12-09T07:02:27.095Z,1.58
2017-12-09T07:03:35.918Z,1.55
2017-12-09T07:04:44.741Z,1.59
2017-12-09T07:05:53.566Z,1.48
2017-12-09T07:07:02.389Z,1.52
2017-12-09T07:08:11.209Z,1.48
2017-12-09T07:09:20.312Z,1.47
2017-12-09T07:10:29.135Z,1.45
2017-12-09T07:11:37.958Z,1.48
2017-12-09T07:12:46.780Z,1.54
2017-12-09T07:13:55.881Z,1.47
2017-12-09T07:15:04.753Z,1.47
2017-12-09T07:16:13.577Z,1.45
2017-12-09T07:17:22.400Z,1.42
2017-12-09T07:18:31.220Z,1.42
2017-12-09T07:19:40.045Z,1.52
2017-12-09T07:20:48.970Z,1.48
2017-12-09T07:21:57.794Z,1.51
2017-12-09T07:23:06.627Z,1.59
2017-12-09T07:24:15.449Z,1.6
2017-12-09T07:25:24.575Z,1.51
2017-12-09T07:26:33.399Z,1.59
2017-12-09T07:27:42.228Z,1.62
2017-12-09T07:28:51.051Z,1.59
2017-12-09T07:29:59.876Z,1.68
2017-12-09T07:31:08.852Z,1.7
2017-12-09T07:32:17.675Z,1.63
2017-12-09T07:33:26.496Z,1.6
2017-12-09T07:34:35.322Z,1.58
2017-12-09T07:35:44.145Z,1.55
2017-12-09T07:36:53.271Z,1.66
2017-12-09T07:38:02.096Z,1.6
2017-12-09T07:39:10.918Z,1.58
2017-12-09T07:40:19.743Z,1.66
2017-12-09T07:41:28.566Z,1.55
2017-12-09T07:42:37.764Z,1.58
2017-12-09T07:43:46.588Z,1.65
2017-12-09T07:44:55.411Z,1.72
2017-12-09T07:46:04.238Z,1.77
2017-12-09T07:47:13.059Z,1.9
2017-12-09T07:48:22.032Z,1.95
2017-12-09T07:49:30.857Z,1.83
2017-12-09T07:50:39.680Z,1.66
2017-12-09T07:51:48.506Z,1.79
2017-12-09T07:52:57.615Z,2.06
2017-12-09T07:54:06.739Z,1.88
2017-12-09T07:55:15.570Z,1.87
2017-12-09T07:56:24.392Z,1.76
2017-12-09T07:57:33.214Z,1.88
2017-12-09T07:58:42.042Z,1.72
2017-12-09T07:59:51.241Z,1.79
2017-12-09T08:01:00.063Z,1.84
2017-12-09T08:02:08.889Z,1.93
2017-12-09T08:03:17.711Z,1.91
2017-12-09T08:04:26.532Z,2.12
2017-12-09T08:05:35.456Z,1.84
2017-12-09T08:06:44.290Z,2.03
2017-12-09T08:07:53.112Z,1.98
2017-12-09T08:09:01.936Z,1.93
2017-12-09T08:10:11.036Z,1.83
2017-12-09T08:11:19.959Z,1.77
2017-12-09T08:12:28.782Z,2.16
2017-12-09T08:13:37.605Z,2.07
2017-12-09T08:14:46.430Z,2.05
2017-12-09T08:15:55.253Z,1.98
2017-12-09T08:17:04.375Z,1.99
2017-12-09T08:18:13.478Z,1.93
2017-12-09T08:19:22.298Z,1.8
2017-12-09T08:20:31.123Z,1.88
2017-12-09T08:21:39.946Z,1.88
2017-12-09T08:22:48.772Z,1.79
2017-12-09T08:23:57.597Z,1.72
2017-12-09T08:25:06.418Z,1.7
2017-12-09T08:26:15.244Z,1.77
2017-12-09T08:27:24.066Z,1.7
2017-12-09T08:28:32.954Z,1.72
2017-12-09T08:29:42.215Z,1.79
2017-12-09T08:30:51.421Z,1.7
2017-12-09T08:32:00.528Z,1.72
2017-12-09T08:33:09.352Z,1.68
2017-12-09T08:34:18.237Z,1.63
2017-12-09T08:35:27.068Z,1.69
2017-12-09T08:36:35.888Z,1.62
2017-12-09T08:37:44.737Z,1.59
2017-12-09T08:38:53.564Z,1.6
2017-12-09T08:40:02.521Z,1.6
2017-12-09T08:41:11.362Z,1.55
2017-12-09T08:42:20.192Z,1.59
2017-12-09T08:43:29.028Z,1.54
2017-12-09T08:44:37.865Z,1.55
2017-12-09T08:45:46.713Z,1.52
2017-12-09T08:46:55.797Z,1.58
2017-12-09T08:48:04.901Z,1.58
2017-12-09T08:49:13.723Z,1.55
2017-12-09T08:50:22.580Z,1.66
2017-12-09T08:51:31.409Z,1.68
2017-12-09T08:52:40.264Z,1.65
2017-12-09T08:53:49.104Z,1.68
2017-12-09T08:54:57.936Z,1.68
2017-12-09T08:56:06.770Z,1.72
2017-12-09T08:57:15.608Z,1.63
2017-12-09T08:58:24.479Z,1.73
2017-12-09T08:59:33.320Z,1.79
2017-12-09T09:00:42.152Z,1.66
2017-12-09T09:01:51.029Z,1.68
2017-12-09T09:02:59.863Z,1.68
2017-12-09T09:04:08.977Z,1.72
2017-12-09T09:05:17.816Z,1.66
2017-12-09T09:06:26.645Z,1.69
2017-12-09T09:07:35.477Z,1.79
2017-12-09T09:08:44.357Z,1.73
2017-12-09T09:09:53.193Z,1.76
2017-12-09T09:11:02.077Z,1.7
2017-12-09T09:12:10.918Z,1.8
2017-12-09T09:13:19.751Z,1.87
2017-12-09T09:14:28.652Z,1.79
2017-12-09T09:15:37.704Z,1.84
2017-12-09T09:16:46.865Z,1.83
2017-12-09T09:17:55.741Z,1.91
2017-12-09T09:19:04.586Z,1.84
2017-12-09T09:20:13.410Z,1.87
2017-12-09T09:21:22.273Z,1.98
2017-12-09T09:22:31.398Z,2.02
2017-12-09T09:23:40.234Z,1.93
2017-12-09T09:24:49.058Z,1.93
2017-12-09T09:25:57.898Z,1.99
2017-12-09T09:27:06.784Z,1.91
2017-12-09T09:28:15.719Z,1.98
2017-12-09T09:29:24.527Z,2
2017-12-09T09:30:33.363Z,2.06
2017-12-09T09:31:42.190Z,2.12
2017-12-09T09:32:51.030Z,2.09
2017-12-09T09:34:00.139Z,2.09
2017-12-09T09:35:08.989Z,2.07
2017-12-09T09:36:17.834Z,2.07
2017-12-09T09:37:26.658Z,2.1
2017-12-09T09:38:35.534Z,2.12
2017-12-09T09:39:44.513Z,2.23
2017-12-09T09:40:53.361Z,2.21
2017-12-09T09:42:02.189Z,2.25
2017-12-09T09:43:11.075Z,2.24
2017-12-09T09:44:19.870Z,2.25
2017-12-09T09:45:29.123Z,2.31
2017-12-09T09:46:37.948Z,2.35
2017-12-09T09:47:47.045Z,2.3
2017-12-09T09:48:55.890Z,2.28
2017-12-09T09:50:04.777Z,2.28
2017-12-09T09:51:13.817Z,2.42
2017-12-09T09:52:22.643Z,2.27
2017-12-09T09:53:31.473Z,2.28
2017-12-09T09:54:40.308Z,2.27
2017-12-09T09:55:49.146Z,2.28
2017-12-09T09:56:58.117Z,2.31
2017-12-09T09:58:07.217Z,2.31
2017-12-09T09:59:16.040Z,2.27
2017-12-09T10:00:24.863Z,2.35
2017-12-09T10:01:33.703Z,2.31
2017-12-09T10:02:42.528Z,2.34
2017-12-09T10:03:51.363Z,2.31
2017-12-09T10:05:00.190Z,2.46
2017-12-09T10:06:09.018Z,2.42
2017-12-09T10:07:17.840Z,2.42
2017-12-09T10:08:26.667Z,2.42
2017-12-09T10:09:35.489Z,2.41
2017-12-09T10:10:44.320Z,2.38
2017-12-09T10:11:53.144Z,2.38
2017-12-09T10:13:01.970Z,2.43
2017-12-09T10:14:10.950Z,2.42
2017-12-09T10:15:19.775Z,2.39
2017-12-09T10:16:28.602Z,2.39
2017-12-09T10:17:37.464Z,2.43
2017-12-09T10:18:46.289Z,2.49
2017-12-09T10:19:55.117Z,2.46
2017-12-09T10:21:04.245Z,2.59
2017-12-09T10:22:13.066Z,2.61
2017-12-09T10:23:21.902Z,2.67
2017-12-09T10:24:30.727Z,2.66
2017-12-09T10:25:39.733Z,2.74
2017-12-09T10:26:48.561Z,2.71
2017-12-09T10:27:57.385Z,2.78
2017-12-09T10:29:06.213Z,2.87
2017-12-09T10:30:15.095Z,2.89
2017-12-09T10:31:24.016Z,2.92
2017-12-09T10:32:32.843Z,2.92
2017-12-09T10:33:41.669Z,2.87
2017-12-09T10:34:50.494Z,2.9
2017-12-09T10:35:59.324Z,2.81
2017-12-09T10:37:08.295Z,2.9
2017-12-09T10:38:17.123Z,2.79
2017-12-09T10:39:26.002Z,2.92
2017-12-09T10:40:35.102Z,2.82
2017-12-09T10:41:43.928Z,2.79
2017-12-09T10:42:52.852Z,2.77
2017-12-09T10:44:01.679Z,2.75
2017-12-09T10:45:10.504Z,2.81
2017-12-09T10:46:19.332Z,2.9
2017-12-09T10:47:28.165Z,2.95
2017-12-09T10:48:36.987Z,2.87
2017-12-09T10:49:45.817Z,2.96
2017-12-09T10:50:54.640Z,2.89
2017-12-09T10:52:03.464Z,2.87
2017-12-09T10:53:12.563Z,2.89
2017-12-09T10:54:21.438Z,2.87
2017-12-09T10:55:30.266Z,2.9
2017-12-09T10:56:39.116Z,2.93
2017-12-09T10:57:47.940Z,2.78
2017-12-09T10:58:56.773Z,2.81
2017-12-09T11:00:05.751Z,2.82
2017-12-09T11:01:14.607Z,2.77
2017-12-09T11:02:23.428Z,2.82
2017-12-09T11:03:32.254Z,2.79
2017-12-09T11:04:41.080Z,2.77
2017-12-09T11:05:50.060Z,2.79
2017-12-09T11:06:59.166Z,2.72
2017-12-09T11:08:07.995Z,2.77
2017-12-09T11:09:16.819Z,2.82
2017-12-09T11:10:25.645Z,2.77
2017-12-09T11:11:34.618Z,2.79
2017-12-09T11:12:43.447Z,2.75
2017-12-09T11:13:52.580Z,2.71
2017-12-09T11:15:01.407Z,2.74
2017-12-09T11:16:10.236Z,2.74
2017-12-09T11:17:19.260Z,2.78
2017-12-09T11:18:28.101Z,2.84
2017-12-09T11:19:36.929Z,2.71
2017-12-09T11:20:45.756Z,2.75
2017-12-09T11:21:54.601Z,2.77
2017-12-09T11:23:03.493Z,2.74
2017-12-09T11:24:12.268Z,2.81
2017-12-09T11:25:21.092Z,2.75
2017-12-09T11:26:30.192Z,2.93
2017-12-09T11:27:39.016Z,2.9
2017-12-09T11:28:47.991Z,2.95
2017-12-09T11:29:56.816Z,2.89
2017-12-09T11:31:05.641Z,2.93
2017-12-09T11:32:14.467Z,2.93
2017-12-09T11:33:23.290Z,3.03
2017-12-09T11:34:32.267Z,2.97
2017-12-09T11:35:41.094Z,3.1
2017-12-09T11:36:49.922Z,3.11
2017-12-09T11:37:58.745Z,3.13
2017-12-09T11:39:07.855Z,3.26
2017-12-09T11:40:16.681Z,3.29
2017-12-09T11:41:25.508Z,3.35
2017-12-09T11:42:34.334Z,3.35
2017-12-09T11:43:43.163Z,3.32
2017-12-09T11:44:51.984Z,3.36
2017-12-09T11:46:00.861Z,3.39
2017-12-09T11:47:09.688Z,3.5
2017-12-09T11:48:18.791Z,3.54
2017-12-09T11:49:27.617Z,3.43
2017-12-09T11:50:36.444Z,3.51
2017-12-09T11:51:45.649Z,3.54
2017-12-09T11:52:54.474Z,3.32
2017-12-09T11:54:03.584Z,3.4
2017-12-09T11:55:12.680Z,3.35
2017-12-09T11:56:21.505Z,3.29
2017-12-09T11:57:30.430Z,3.43
2017-12-09T11:58:39.536Z,3.4
2017-12-09T11:59:48.633Z,3.32
2017-12-09T12:00:57.461Z,3.43
2017-12-09T12:02:06.289Z,3.39
2017-12-09T12:03:15.110Z,3.39
2017-12-09T12:04:23.941Z,3.45
2017-12-09T12:05:32.769Z,3.51
2017-12-09T12:06:41.597Z,3.57
2017-12-09T12:07:50.695Z,3.68
2017-12-09T12:08:59.823Z,3.68
2017-12-09T12:10:08.654Z,3.68
2017-12-09T12:11:17.480Z,3.65
2017-12-09T12:12:26.307Z,3.66
2017-12-09T12:13:35.407Z,3.57
2017-12-09T12:14:44.386Z,3.57
2017-12-09T12:15:53.214Z,3.51
2017-12-09T12:17:02.139Z,3.57
2017-12-09T12:18:10.966Z,3.52
2017-12-09T12:19:19.793Z,3.42
2017-12-09T12:20:28.718Z,3.54
2017-12-09T12:21:37.544Z,3.43
2017-12-09T12:22:46.370Z,3.45
2017-12-09T12:23:55.198Z,3.39
2017-12-09T12:25:04.023Z,3.36
2017-12-09T12:26:12.847Z,3.4
2017-12-09T12:27:21.670Z,3.36
2017-12-09T12:28:30.525Z,3.4
2017-12-09T12:29:39.320Z,3.24
2017-12-09T12:30:48.148Z,3.24
2017-12-09T12:31:57.276Z,3.33
2017-12-09T12:33:06.106Z,3.2
2017-12-09T12:34:14.933Z,3.5
2017-12-09T12:35:23.756Z,3.11
2017-12-09T12:36:32.855Z,3.17
2017-12-09T12:37:41.832Z,3.13
2017-12-09T12:38:50.659Z,3.13
2017-12-09T12:40:00.032Z,3.1
2017-12-09T12:41:08.857Z,3.1
2017-12-09T12:42:17.678Z,3.08
2017-12-09T12:43:26.505Z,2.93
2017-12-09T12:44:35.606Z,2.96
2017-12-09T12:45:44.430Z,2.89
2017-12-09T12:46:53.260Z,2.79
2017-12-09T12:48:02.088Z,2.95
2017-12-09T12:49:10.962Z,2.89
2017-12-09T12:50:19.787Z,2.81
2017-12-09T12:51:28.614Z,2.84
2017-12-09T12:52:37.442Z,2.77
2017-12-09T12:53:46.269Z,2.89
2017-12-09T12:54:55.524Z,2.93
2017-12-09T12:56:04.346Z,2.96
2017-12-09T12:57:13.207Z,2.92
2017-12-09T12:58:22.001Z,3.08
2017-12-09T12:59:30.822Z,3.03
2017-12-09T13:00:39.651Z,3.15
2017-12-09T13:01:48.475Z,3.06
2017-12-09T13:02:57.301Z,2.95
2017-12-09T13:04:06.398Z,3
2017-12-09T13:05:15.225Z,2.96
2017-12-09T13:06:24.153Z,3.03
2017-12-09T13:07:33.252Z,3.03
2017-12-09T13:08:42.078Z,3.06
2017-12-09T13:09:51.181Z,3.18
2017-12-09T13:11:00.009Z,3.1
2017-12-09T13:12:08.988Z,2.97
2017-12-09T13:13:17.812Z,3.03
2017-12-09T13:14:26.638Z,2.95
2017-12-09T13:15:35.463Z,2.97
2017-12-09T13:16:44.562Z,2.97
2017-12-09T13:17:53.636Z,2.97
2017-12-09T13:19:02.463Z,2.97
2017-12-09T13:20:11.287Z,2.92
2017-12-09T13:21:20.113Z,2.79
2017-12-09T13:22:28.936Z,2.84
2017-12-09T13:23:37.809Z,2.89
2017-12-09T13:24:46.640Z,2.93
2017-12-09T13:25:55.464Z,2.9
2017-12-09T13:27:04.288Z,2.87
2017-12-09T13:28:13.115Z,2.97
2017-12-09T13:29:22.090Z,2.96
2017-12-09T13:30:30.918Z,2.95
2017-12-09T13:31:39.745Z,2.93
2017-12-09T13:32:48.571Z,2.81
2017-12-09T13:33:57.395Z,2.87
2017-12-09T13:35:06.371Z,2.89
2017-12-09T13:36:15.195Z,2.84
2017-12-09T13:37:24.020Z,2.92
2017-12-09T13:38:32.842Z,2.9
2017-12-09T13:39:41.669Z,2.93
2017-12-09T13:40:50.496Z,2.93
2017-12-09T13:41:59.317Z,3
2017-12-09T13:43:08.141Z,2.89
2017-12-09T13:44:16.968Z,2.78
2017-12-09T13:45:25.790Z,2.9
2017-12-09T13:46:34.914Z,2.85
2017-12-09T13:47:44.015Z,2.71
2017-12-09T13:48:52.836Z,2.82
2017-12-09T13:50:01.670Z,2.77
2017-12-09T13:51:10.510Z,2.77
2017-12-09T13:52:19.615Z,2.74
2017-12-09T13:53:28.443Z,2.78
2017-12-09T13:54:37.270Z,2.75
2017-12-09T13:55:46.096Z,2.81
2017-12-09T13:56:54.923Z,2.82
2017-12-09T13:58:03.950Z,2.77
2017-12-09T13:59:13.050Z,2.77
2017-12-09T14:00:21.878Z,2.9
2017-12-09T14:01:30.713Z,2.85
2017-12-09T14:02:39.542Z,2.92
2017-12-09T14:03:48.621Z,2.92
2017-12-09T14:04:57.459Z,2.93
2017-12-09T14:06:06.294Z,2.81
2017-12-09T14:07:15.434Z,2.82
2017-12-09T14:08:24.295Z,2.79
2017-12-09T14:09:33.209Z,2.79
2017-12-09T14:10:42.351Z,2.78
2017-12-09T14:11:51.202Z,2.74
2017-12-09T14:13:00.062Z,2.74
2017-12-09T14:14:08.903Z,2.79
2017-12-09T14:15:17.959Z,2.75
2017-12-09T14:16:26.806Z,2.87
2017-12-09T14:17:35.656Z,2.79
2017-12-09T14:18:44.530Z,2.79
2017-12-09T14:19:53.394Z,2.9
2017-12-09T14:21:02.417Z,2.92
2017-12-09T14:22:11.266Z,2.81
2017-12-09T14:23:20.127Z,2.9
2017-12-09T14:24:28.972Z,2.95
2017-12-09T14:25:37.798Z,2.9
2017-12-09T14:26:46.876Z,2.87
2017-12-09T14:27:55.702Z,2.95
2017-12-09T14:29:04.801Z,2.95
2017-12-09T14:30:13.626Z,2.92
2017-12-09T14:31:22.450Z,2.89
2017-12-09T14:32:31.426Z,2.93
2017-12-09T14:33:40.249Z,2.85
2017-12-09T14:34:49.075Z,2.92
2017-12-09T14:35:57.905Z,2.92
2017-12-09T14:37:06.737Z,2.89
2017-12-09T14:38:15.972Z,2.89
2017-12-09T14:39:24.797Z,2.99
2017-12-09T14:40:33.620Z,2.97
2017-12-09T14:41:42.455Z,2.93
2017-12-09T14:42:51.271Z,2.99
2017-12-09T14:44:00.398Z,2.95
2017-12-09T14:45:09.223Z,3.06
2017-12-09T14:46:18.051Z,2.99
2017-12-09T14:47:26.879Z,2.95
2017-12-09T14:48:35.722Z,2.95
2017-12-09T14:49:44.703Z,2.97
2017-12-09T14:50:53.533Z,3.06
2017-12-09T14:52:02.363Z,3.05
2017-12-09T14:53:11.190Z,2.99
2017-12-09T14:54:20.022Z,2.97
2017-12-09T14:55:28.845Z,3.06
2017-12-09T14:56:37.669Z,3.1
2017-12-09T14:57:46.495Z,2.97
2017-12-09T14:58:55.826Z,3.05
2017-12-09T15:00:04.659Z,3
2017-12-09T15:01:13.484Z,3.08
2017-12-09T15:02:22.401Z,3.03
2017-12-09T15:03:31.256Z,3.13
2017-12-09T15:04:40.077Z,3.08
2017-12-09T15:05:48.913Z,3.05
2017-12-09T15:06:58.040Z,3.05
2017-12-09T15:08:06.862Z,2.97
2017-12-09T15:09:15.966Z,3.08
2017-12-09T15:10:24.792Z,3.06
2017-12-09T15:11:33.618Z,3.05
2017-12-09T15:12:42.543Z,3
2017-12-09T15:13:51.394Z,2.95
2017-12-09T15:15:00.272Z,3
2017-12-09T15:16:09.100Z,2.93
2017-12-09T15:17:17.925Z,2.97
2017-12-09T15:18:26.764Z,2.97
2017-12-09T15:19:35.589Z,2.99
2017-12-09T15:20:44.415Z,2.99